Página principal
METAR-TAF:

METAR-TAF

Aeroportos :

Aeroporto Internacional Murtala Muhammed

Lagos, Nigéria

latitude: 06-35N, longitude: 003-20E, altura: 40 m

Observação actual do tempo

O boletim foi feito há 1 hora e 7 minutos, às 03:00 UTC
Vento 3 kt de nordeste
Temperatura 27°C
Humidade 89%
Pressão 1014 hPa
Visibilidade: 6000 m
Poucas nuvensa uma altura de 1100 ft

METAR: DNMM 140300Z 04003KT 6000 FEW011 27/25 Q1014 NOSIG

Hora: 05:07 (04:07 UTC)

Previsão

O boletim foi feito há 6 horas e 22 minutos, às 21:45 UTC
Previsão válida de 14 às 00 UTC a 15 às 06 UTC
Vento 2 kt com direcção variável
Visibilidade: 6000 m
Poucas nuvensa uma altura de 1000 ft
Temporariamente
de 14 às 06 UTC a 14 às 08 UTC
Visibilidade: 5000 m
neblina, bruma
Probabilidade 30%
de 14 às 08 UTC a 14 às 11 UTC
Visibilidade: 1500 m
bruma

TAF: DNMM 132145Z 1400/1506 VRB02KT 6000 FEW010 TEMPO 1406/1408 5000 BR HZ PROB30 1408/1411 1500 HZ

Observações e previsões do tempo de mais de 4000 aeroportos (mensagens METAR e TAF).

As estações disponíveis são os pontos amarelos e vermelhos sobre o mapa.

Mova o rato sobre o mapa para ver o nome da estação.

Depois clique no ponto para visualizar as observações e previsões meteorológicas.

Para alterar o mapa : clique nos botões verdes com uma cruz preta para aumentar o zoom; no botão verde com uma pitada de zoom; ou nas setas verdes para mapas adjacentes.


METAR-TAF: